sensor_id;sensor_type;location;lat;lon;timestamp;pressure;altitude;pressure_sealevel;temperature;humidity
72857;BME280;62742;52.136;4.500;2023-01-15T00:03:47;99856.63;;;7.39;73.06
72857;BME280;62742;52.136;4.500;2023-01-15T00:06:14;99856.72;;;7.33;72.80
72857;BME280;62742;52.136;4.500;2023-01-15T00:08:41;99857.69;;;7.27;73.95
72857;BME280;62742;52.136;4.500;2023-01-15T00:11:08;99850.56;;;7.37;73.32
72857;BME280;62742;52.136;4.500;2023-01-15T00:13:34;99860.19;;;7.35;73.58
72857;BME280;62742;52.136;4.500;2023-01-15T00:18:35;99846.09;;;7.42;72.93
72857;BME280;62742;52.136;4.500;2023-01-15T00:21:02;99843.53;;;7.40;71.14
72857;BME280;62742;52.136;4.500;2023-01-15T00:23:30;99849.47;;;7.48;71.41
72857;BME280;62742;52.136;4.500;2023-01-15T00:26:16;99855.81;;;7.35;72.47
72857;BME280;62742;52.136;4.500;2023-01-15T00:29:02;99856.63;;;7.39;71.89
72857;BME280;62742;52.136;4.500;2023-01-15T00:31:29;99845.59;;;7.23;71.40
72857;BME280;62742;52.136;4.500;2023-01-15T00:33:57;99846.22;;;7.36;69.70
72857;BME280;62742;52.136;4.500;2023-01-15T00:36:23;99838.34;;;7.37;70.50
72857;BME280;62742;52.136;4.500;2023-01-15T00:38:50;99840.19;;;7.32;70.25
72857;BME280;62742;52.136;4.500;2023-01-15T00:41:17;99842.78;;;7.32;70.58
72857;BME280;62742;52.136;4.500;2023-01-15T00:43:43;99841.94;;;7.32;69.58
72857;BME280;62742;52.136;4.500;2023-01-15T00:46:09;99844.44;;;7.38;70.96
72857;BME280;62742;52.136;4.500;2023-01-15T00:48:35;99841.00;;;7.36;71.01
72857;BME280;62742;52.136;4.500;2023-01-15T00:51:02;99840.19;;;7.32;71.06
72857;BME280;62742;52.136;4.500;2023-01-15T00:53:29;99841.13;;;7.29;70.36
72857;BME280;62742;52.136;4.500;2023-01-15T00:55:56;99834.22;;;7.24;70.57
72857;BME280;62742;52.136;4.500;2023-01-15T00:58:22;99837.91;;;7.14;69.80
72857;BME280;62742;52.136;4.500;2023-01-15T01:00:52;99828.19;;;7.22;70.24
72857;BME280;62742;52.136;4.500;2023-01-15T01:03:20;99838.53;;;7.28;69.87
72857;BME280;62742;52.136;4.500;2023-01-15T01:05:48;99831.53;;;7.30;69.96
72857;BME280;62742;52.136;4.500;2023-01-15T01:08:16;99839.25;;;7.36;70.26
72857;BME280;62742;52.136;4.500;2023-01-15T01:10:42;99840.41;;;7.21;70.69
72857;BME280;62742;52.136;4.500;2023-01-15T01:13:09;99833.41;;;7.22;69.99
72857;BME280;62742;52.136;4.500;2023-01-15T01:15:36;99827.19;;;7.27;70.36
72857;BME280;62742;52.136;4.500;2023-01-15T01:18:03;99833.28;;;7.29;70.55
72857;BME280;62742;52.136;4.500;2023-01-15T01:20:31;99835.16;;;7.21;71.47
72857;BME280;62742;52.136;4.500;2023-01-15T01:22:58;99843.84;;;7.23;71.72
72857;BME280;62742;52.136;4.500;2023-01-15T01:25:24;99854.31;;;7.22;71.11
72857;BME280;62742;52.136;4.500;2023-01-15T01:27:50;99837.94;;;7.12;70.30
72857;BME280;62742;52.136;4.500;2023-01-15T01:30:16;99852.84;;;7.05;71.06
72857;BME280;62742;52.136;4.500;2023-01-15T01:32:43;99842.28;;;7.13;71.09
72857;BME280;62742;52.136;4.500;2023-01-15T01:35:09;99850.22;;;7.05;71.14
72857;BME280;62742;52.136;4.500;2023-01-15T01:37:36;99853.88;;;6.97;72.25
72857;BME280;62742;52.136;4.500;2023-01-15T01:40:02;99857.06;;;7.14;71.74
72857;BME280;62742;52.136;4.500;2023-01-15T01:42:29;99855.50;;;7.04;71.22
72857;BME280;62742;52.136;4.500;2023-01-15T01:45:04;99864.25;;;7.00;71.43
72857;BME280;62742;52.136;4.500;2023-01-15T01:47:34;99856.22;;;7.12;70.18
72857;BME280;62742;52.136;4.500;2023-01-15T01:50:06;99867.00;;;6.93;71.04
72857;BME280;62742;52.136;4.500;2023-01-15T01:52:38;99857.44;;;6.92;71.66
72857;BME280;62742;52.136;4.500;2023-01-15T01:55:09;99855.59;;;6.98;71.89
72857;BME280;62742;52.136;4.500;2023-01-15T01:57:38;99870.28;;;7.03;71.78
72857;BME280;62742;52.136;4.500;2023-01-15T02:00:05;99870.34;;;7.00;71.14
72857;BME280;62742;52.136;4.500;2023-01-15T02:02:32;99848.31;;;7.17;70.25
72857;BME280;62742;52.136;4.500;2023-01-15T02:05:00;99859.81;;;7.05;70.06
72857;BME280;62742;52.136;4.500;2023-01-15T02:07:28;99849.31;;;7.09;70.81
72857;BME280;62742;52.136;4.500;2023-01-15T02:09:58;99851.56;;;7.29;69.03
72857;BME280;62742;52.136;4.500;2023-01-15T02:12:27;99839.66;;;7.13;70.07
72857;BME280;62742;52.136;4.500;2023-01-15T02:17:34;99848.47;;;7.09;70.73
72857;BME280;62742;52.136;4.500;2023-01-15T02:25:50;99834.66;;;7.01;69.03
72857;BME280;62742;52.136;4.500;2023-01-15T02:28:37;99831.06;;;7.08;69.33
72857;BME280;62742;52.136;4.500;2023-01-15T02:31:10;99848.56;;;7.03;70.47
72857;BME280;62742;52.136;4.500;2023-01-15T02:33:47;99852.25;;;6.89;70.21
72857;BME280;62742;52.136;4.500;2023-01-15T02:36:21;99847.84;;;6.91;71.14
72857;BME280;62742;52.136;4.500;2023-01-15T02:38:52;99847.97;;;6.85;70.91
72857;BME280;62742;52.136;4.500;2023-01-15T02:41:27;99851.34;;;6.93;70.81
72857;BME280;62742;52.136;4.500;2023-01-15T02:43:58;99855.91;;;6.79;69.51
72857;BME280;62742;52.136;4.500;2023-01-15T02:46:30;99854.25;;;6.75;69.43
72857;BME280;62742;52.136;4.500;2023-01-15T02:48:59;99853.22;;;6.84;69.23
72857;BME280;62742;52.136;4.500;2023-01-15T02:51:30;99836.53;;;6.92;68.80
72857;BME280;62742;52.136;4.500;2023-01-15T02:54:05;99838.56;;;6.77;68.48
72857;BME280;62742;52.136;4.500;2023-01-15T02:56:36;99830.78;;;6.72;68.61
72857;BME280;62742;52.136;4.500;2023-01-15T02:59:07;99836.75;;;6.80;68.74
72857;BME280;62742;52.136;4.500;2023-01-15T03:01:40;99828.66;;;6.96;68.76
72857;BME280;62742;52.136;4.500;2023-01-15T03:04:16;99820.06;;;6.89;68.80
72857;BME280;62742;52.136;4.500;2023-01-15T03:07:07;99830.50;;;6.90;67.99
72857;BME280;62742;52.136;4.500;2023-01-15T03:09:36;99817.47;;;6.87;68.60
72857;BME280;62742;52.136;4.500;2023-01-15T03:12:07;99824.59;;;6.78;68.66
72857;BME280;62742;52.136;4.500;2023-01-15T03:14:42;99829.84;;;6.74;68.47
72857;BME280;62742;52.136;4.500;2023-01-15T03:17:18;99832.63;;;6.65;70.20
72857;BME280;62742;52.136;4.500;2023-01-15T03:19:55;99826.53;;;6.68;69.60
72857;BME280;62742;52.136;4.500;2023-01-15T03:25:05;99819.53;;;6.70;69.88
72857;BME280;62742;52.136;4.500;2023-01-15T03:27:40;99809.06;;;6.70;69.58
72857;BME280;62742;52.136;4.500;2023-01-15T03:30:09;99812.47;;;6.75;70.32
72857;BME280;62742;52.136;4.500;2023-01-15T03:32:45;99819.47;;;6.73;70.95
72857;BME280;62742;52.136;4.500;2023-01-15T03:38:13;99820.13;;;6.86;69.44
72857;BME280;62742;52.136;4.500;2023-01-15T03:40:51;99809.72;;;6.83;69.75
72857;BME280;62742;52.136;4.500;2023-01-15T03:43:26;99824.63;;;6.76;69.55
72857;BME280;62742;52.136;4.500;2023-01-15T03:46:09;99816.97;;;6.65;70.66
72857;BME280;62742;52.136;4.500;2023-01-15T03:48:44;99817.66;;;6.78;70.20
72857;BME280;62742;52.136;4.500;2023-01-15T03:51:34;99816.88;;;6.73;71.13
72857;BME280;62742;52.136;4.500;2023-01-15T03:54:26;99823.84;;;6.71;70.50
72857;BME280;62742;52.136;4.500;2023-01-15T03:57:12;99814.94;;;6.83;69.65
72857;BME280;62742;52.136;4.500;2023-01-15T03:59:49;99838.69;;;6.67;70.75
72857;BME280;62742;52.136;4.500;2023-01-15T04:02:19;99808.91;;;6.79;70.25
72857;BME280;62742;52.136;4.500;2023-01-15T04:04:47;99810.69;;;6.77;69.74
72857;BME280;62742;52.136;4.500;2023-01-15T04:07:15;99815.03;;;6.78;70.34
72857;BME280;62742;52.136;4.500;2023-01-15T04:09:42;99819.53;;;6.70;69.61
72857;BME280;62742;52.136;4.500;2023-01-15T04:12:08;99824.81;;;6.65;69.65
72857;BME280;62742;52.136;4.500;2023-01-15T04:14:35;99821.19;;;6.72;69.63
72857;BME280;62742;52.136;4.500;2023-01-15T04:17:01;99830.84;;;6.67;69.89
72857;BME280;62742;52.136;4.500;2023-01-15T04:19:27;99834.22;;;6.76;70.21
72857;BME280;62742;52.136;4.500;2023-01-15T04:21:53;99811.63;;;6.73;69.90
72857;BME280;62742;52.136;4.500;2023-01-15T04:24:19;99821.97;;;6.79;69.51
72857;BME280;62742;52.136;4.500;2023-01-15T04:26:46;99827.22;;;6.78;68.82
72857;BME280;62742;52.136;4.500;2023-01-15T04:29:12;99835.00;;;6.79;68.67
72857;BME280;62742;52.136;4.500;2023-01-15T04:31:38;99838.53;;;6.78;68.78
72857;BME280;62742;52.136;4.500;2023-01-15T04:34:04;99816.78;;;6.76;69.74
72857;BME280;62742;52.136;4.500;2023-01-15T04:36:31;99824.63;;;6.76;69.25
72857;BME280;62742;52.136;4.500;2023-01-15T04:39:00;99816.81;;;6.74;68.92
72857;BME280;62742;52.136;4.500;2023-01-15T04:41:28;99823.03;;;6.66;69.84
72857;BME280;62742;52.136;4.500;2023-01-15T04:44:13;99812.34;;;6.81;68.96
72857;BME280;62742;52.136;4.500;2023-01-15T04:46:40;99815.94;;;6.74;67.56
72857;BME280;62742;52.136;4.500;2023-01-15T04:49:10;99820.31;;;6.75;66.95
72857;BME280;62742;52.136;4.500;2023-01-15T04:51:38;99801.88;;;6.83;65.75
72857;BME280;62742;52.136;4.500;2023-01-15T04:54:05;99815.16;;;6.70;66.83
72857;BME280;62742;52.136;4.500;2023-01-15T04:56:36;99813.38;;;6.72;66.21
72857;BME280;62742;52.136;4.500;2023-01-15T04:59:04;99810.78;;;6.71;64.08
72857;BME280;62742;52.136;4.500;2023-01-15T05:01:31;99816.91;;;6.70;65.13
72857;BME280;62742;52.136;4.500;2023-01-15T05:03:57;99815.28;;;6.63;64.05
72857;BME280;62742;52.136;4.500;2023-01-15T05:06:24;99815.28;;;6.63;64.95
72857;BME280;62742;52.136;4.500;2023-01-15T05:08:51;99821.38;;;6.62;63.73
72857;BME280;62742;52.136;4.500;2023-01-15T05:11:17;99813.59;;;6.59;64.46
72857;BME280;62742;52.136;4.500;2023-01-15T05:13:44;99803.34;;;6.46;65.77
72857;BME280;62742;52.136;4.500;2023-01-15T05:16:11;99817.19;;;6.51;66.08
72857;BME280;62742;52.136;4.500;2023-01-15T05:18:43;99810.94;;;6.62;65.95
72857;BME280;62742;52.136;4.500;2023-01-15T05:21:15;99806.69;;;6.56;65.91
72857;BME280;62742;52.136;4.500;2023-01-15T05:23:47;99805.75;;;6.59;65.74
72857;BME280;62742;52.136;4.500;2023-01-15T05:26:15;99805.94;;;6.49;66.03
72857;BME280;62742;52.136;4.500;2023-01-15T05:28:42;99807.63;;;6.50;65.93
72857;BME280;62742;52.136;4.500;2023-01-15T05:31:09;99799.00;;;6.45;65.89
72857;BME280;62742;52.136;4.500;2023-01-15T05:33:40;99796.28;;;6.54;64.81
72857;BME280;62742;52.136;4.500;2023-01-15T05:36:09;99804.22;;;6.45;65.04
72857;BME280;62742;52.136;4.500;2023-01-15T05:38:37;99795.56;;;6.43;66.09
72857;BME280;62742;52.136;4.500;2023-01-15T05:41:04;99800.75;;;6.46;64.91
72857;BME280;62742;52.136;4.500;2023-01-15T05:43:50;99800.03;;;6.36;64.71
72857;BME280;62742;52.136;4.500;2023-01-15T05:46:17;99800.06;;;6.33;64.79
72857;BME280;62742;52.136;4.500;2023-01-15T05:48:43;99801.06;;;6.25;64.57
72857;BME280;62742;52.136;4.500;2023-01-15T05:51:09;99799.25;;;6.30;63.28
72857;BME280;62742;52.136;4.500;2023-01-15T05:53:36;99793.38;;;6.17;64.36
72857;BME280;62742;52.136;4.500;2023-01-15T05:56:02;99792.56;;;6.12;64.54
72857;BME280;62742;52.136;4.500;2023-01-15T05:58:30;99786.44;;;6.14;65.21
72857;BME280;62742;52.136;4.500;2023-01-15T06:00:56;99795.81;;;6.28;65.08
72857;BME280;62742;52.136;4.500;2023-01-15T06:03:23;99796.81;;;6.19;64.47
72857;BME280;62742;52.136;4.500;2023-01-15T06:05:51;99792.50;;;6.16;63.54
72857;BME280;62742;52.136;4.500;2023-01-15T06:08:18;99801.22;;;6.15;63.88
72857;BME280;62742;52.136;4.500;2023-01-15T06:10:45;99807.25;;;6.19;63.93
72857;BME280;62742;52.136;4.500;2023-01-15T06:13:13;99808.22;;;6.13;63.48
72857;BME280;62742;52.136;4.500;2023-01-15T06:15:40;99793.41;;;6.14;64.37
72857;BME280;62742;52.136;4.500;2023-01-15T06:18:07;99801.22;;;6.15;65.02
72857;BME280;62742;52.136;4.500;2023-01-15T06:20:36;99800.63;;;5.96;65.12
72857;BME280;62742;52.136;4.500;2023-01-15T06:23:03;99814.25;;;6.15;65.93
72857;BME280;62742;52.136;4.500;2023-01-15T06:25:33;99816.13;;;6.04;64.84
72857;BME280;62742;52.136;4.500;2023-01-15T06:28:05;99820.53;;;6.02;65.95
72857;BME280;62742;52.136;4.500;2023-01-15T06:30:32;99797.78;;;6.13;66.51
72857;BME280;62742;52.136;4.500;2023-01-15T06:32:59;99805.66;;;6.09;66.63
72857;BME280;62742;52.136;4.500;2023-01-15T06:35:26;99799.47;;;6.16;66.59
72857;BME280;62742;52.136;4.500;2023-01-15T06:37:52;99800.41;;;6.10;66.44
72857;BME280;62742;52.136;4.500;2023-01-15T06:40:19;99801.22;;;6.14;66.13
72857;BME280;62742;52.136;4.500;2023-01-15T06:42:45;99805.50;;;6.18;65.12
72857;BME280;62742;52.136;4.500;2023-01-15T06:45:32;99822.13;;;6.12;64.66
72857;BME280;62742;52.136;4.500;2023-01-15T06:48:25;99801.22;;;6.15;66.02
72857;BME280;62742;52.136;4.500;2023-01-15T06:50:52;99809.84;;;6.21;66.33
72857;BME280;62742;52.136;4.500;2023-01-15T06:53:19;99796.91;;;6.11;65.59
72857;BME280;62742;52.136;4.500;2023-01-15T06:55:46;99794.25;;;6.16;66.43
72857;BME280;62742;52.136;4.500;2023-01-15T06:58:13;99786.47;;;6.11;67.76
72857;BME280;62742;52.136;4.500;2023-01-15T07:00:39;99806.25;;;6.28;67.52
72857;BME280;62742;52.136;4.500;2023-01-15T07:03:09;99795.88;;;6.22;67.17
72857;BME280;62742;52.136;4.500;2023-01-15T07:05:39;99822.84;;;6.22;67.34
72857;BME280;62742;52.136;4.500;2023-01-15T07:08:06;99806.16;;;6.34;66.81
72857;BME280;62742;52.136;4.500;2023-01-15T07:10:33;99804.38;;;6.36;66.71
72857;BME280;62742;52.136;4.500;2023-01-15T07:13:00;99802.59;;;6.38;66.68
72857;BME280;62742;52.136;4.500;2023-01-15T07:15:26;99796.53;;;6.39;67.41
72857;BME280;62742;52.136;4.500;2023-01-15T07:17:53;99798.22;;;6.40;67.04
72857;BME280;62742;52.136;4.500;2023-01-15T07:20:20;99799.84;;;6.47;66.69
72857;BME280;62742;52.136;4.500;2023-01-15T07:22:49;99794.00;;;6.33;66.88
72857;BME280;62742;52.136;4.500;2023-01-15T07:25:16;99797.53;;;6.29;67.79
72857;BME280;62742;52.136;4.500;2023-01-15T07:27:44;99785.34;;;6.29;67.11
72857;BME280;62742;52.136;4.500;2023-01-15T07:30:13;99766.09;;;6.38;67.51
72857;BME280;62742;52.136;4.500;2023-01-15T07:32:40;99776.44;;;6.44;67.89
72857;BME280;62742;52.136;4.500;2023-01-15T07:35:06;99769.53;;;6.40;68.67
72857;BME280;62742;52.136;4.500;2023-01-15T07:37:34;99780.88;;;6.38;72.44
72857;BME280;62742;52.136;4.500;2023-01-15T07:40:01;99784.53;;;6.27;72.38
72857;BME280;62742;52.136;4.500;2023-01-15T07:42:27;99780.34;;;6.17;73.29
72857;BME280;62742;52.136;4.500;2023-01-15T07:45:12;99776.72;;;6.26;72.32
72857;BME280;62742;52.136;4.500;2023-01-15T07:47:56;99776.00;;;6.16;71.14
72857;BME280;62742;52.136;4.500;2023-01-15T07:50:41;99786.53;;;6.08;73.13
72857;BME280;62742;52.136;4.500;2023-01-15T07:53:07;99785.47;;;6.22;72.70
72857;BME280;62742;52.136;4.500;2023-01-15T07:55:34;99789.81;;;6.23;72.71
72857;BME280;62742;52.136;4.500;2023-01-15T07:58:01;99780.16;;;6.28;73.17
72857;BME280;62742;52.136;4.500;2023-01-15T08:00:27;99796.56;;;6.36;72.59
72857;BME280;62742;52.136;4.500;2023-01-15T08:02:54;99786.25;;;6.27;71.49
72857;BME280;62742;52.136;4.500;2023-01-15T08:05:20;99792.19;;;6.38;70.93
72857;BME280;62742;52.136;4.500;2023-01-15T08:07:46;99793.03;;;6.39;71.08
72857;BME280;62742;52.136;4.500;2023-01-15T08:10:13;99789.50;;;6.43;70.75
72857;BME280;62742;52.136;4.500;2023-01-15T08:12:40;99789.56;;;6.38;71.16
72857;BME280;62742;52.136;4.500;2023-01-15T08:15:25;99785.97;;;6.45;70.79
72857;BME280;62742;52.136;4.500;2023-01-15T08:17:51;99778.19;;;6.42;70.46
72857;BME280;62742;52.136;4.500;2023-01-15T08:20:19;99785.75;;;6.59;70.37
72857;BME280;62742;52.136;4.500;2023-01-15T08:22:48;99782.19;;;6.65;70.72
72857;BME280;62742;52.136;4.500;2023-01-15T08:25:16;99800.47;;;6.63;71.06
72857;BME280;62742;52.136;4.500;2023-01-15T08:27:44;99792.13;;;6.41;72.43
72857;BME280;62742;52.136;4.500;2023-01-15T08:30:15;99792.69;;;6.60;71.35
72857;BME280;62742;52.136;4.500;2023-01-15T08:32:43;99805.72;;;6.62;71.04
72857;BME280;62742;52.136;4.500;2023-01-15T08:35:09;99788.22;;;6.68;70.73
72857;BME280;62742;52.136;4.500;2023-01-15T08:37:38;99789.41;;;6.47;71.07
72857;BME280;62742;52.136;4.500;2023-01-15T08:40:06;99795.41;;;6.52;70.34
72857;BME280;62742;52.136;4.500;2023-01-15T08:42:33;99794.47;;;6.58;70.10
72857;BME280;62742;52.136;4.500;2023-01-15T08:44:59;99791.63;;;6.72;69.86
72857;BME280;62742;52.136;4.500;2023-01-15T08:47:25;99793.50;;;6.64;69.90
72857;BME280;62742;52.136;4.500;2023-01-15T08:49:52;99795.34;;;6.57;71.11
72857;BME280;62742;52.136;4.500;2023-01-15T08:52:18;99793.72;;;6.51;70.20
72857;BME280;62742;52.136;4.500;2023-01-15T08:54:44;99812.53;;;6.70;69.72
72857;BME280;62742;52.136;4.500;2023-01-15T08:57:10;99790.81;;;6.68;70.06
72857;BME280;62742;52.136;4.500;2023-01-15T08:59:38;99792.47;;;6.72;69.85
72857;BME280;62742;52.136;4.500;2023-01-15T09:02:09;99785.59;;;6.70;70.01
72857;BME280;62742;52.136;4.500;2023-01-15T09:04:37;99795.03;;;6.76;69.89
72857;BME280;62742;52.136;4.500;2023-01-15T09:07:04;99805.50;;;6.74;70.10
72857;BME280;62742;52.136;4.500;2023-01-15T09:09:30;99807.28;;;6.73;70.29
72857;BME280;62742;52.136;4.500;2023-01-15T09:11:56;99796.69;;;6.80;70.69
72857;BME280;62742;52.136;4.500;2023-01-15T09:14:22;99786.19;;;6.84;70.77
72857;BME280;62742;52.136;4.500;2023-01-15T09:16:48;99793.16;;;6.85;70.02
72857;BME280;62742;52.136;4.500;2023-01-15T09:19:15;99787.97;;;6.82;70.66
72857;BME280;62742;52.136;4.500;2023-01-15T09:21:41;99794.75;;;6.92;70.19
72857;BME280;62742;52.136;4.500;2023-01-15T09:24:08;99785.19;;;6.91;69.89
72857;BME280;62742;52.136;4.500;2023-01-15T09:26:36;99792.00;;;7.00;70.44
72857;BME280;62742;52.136;4.500;2023-01-15T09:29:03;99795.75;;;6.85;70.16
72857;BME280;62742;52.136;4.500;2023-01-15T09:31:31;99780.69;;;7.00;70.45
72857;BME280;62742;52.136;4.500;2023-01-15T09:33:58;99786.72;;;7.03;70.05
72857;BME280;62742;52.136;4.500;2023-01-15T09:36:27;99782.25;;;7.10;70.00
72857;BME280;62742;52.136;4.500;2023-01-15T09:38:59;99782.44;;;7.01;70.61
72857;BME280;62742;52.136;4.500;2023-01-15T09:41:33;99788.72;;;6.90;71.64
72857;BME280;62742;52.136;4.500;2023-01-15T09:47:14;99803.03;;;6.66;75.83
72857;BME280;62742;52.136;4.500;2023-01-15T09:49:56;99799.75;;;6.55;76.61
72857;BME280;62742;52.136;4.500;2023-01-15T09:52:34;99798.22;;;6.40;78.31
72857;BME280;62742;52.136;4.500;2023-01-15T09:57:45;99804.22;;;6.45;78.27
72857;BME280;62742;52.136;4.500;2023-01-15T10:00:18;99802.44;;;6.47;77.82
72857;BME280;62742;52.136;4.500;2023-01-15T10:02:51;99793.41;;;6.70;77.00
72857;BME280;62742;52.136;4.500;2023-01-15T10:05:23;99793.53;;;6.61;75.08
72857;BME280;62742;52.136;4.500;2023-01-15T10:10:37;99800.28;;;6.74;73.12
72857;BME280;62742;52.136;4.500;2023-01-15T10:13:58;99800.34;;;6.71;73.16
72857;BME280;62742;52.136;4.500;2023-01-15T10:16:06;99796.75;;;6.78;73.13
72857;BME280;62742;52.136;4.500;2023-01-15T10:18:34;99806.16;;;6.88;72.44
72857;BME280;62742;52.136;4.500;2023-01-15T10:21:05;99815.44;;;7.03;71.81
72857;BME280;62742;52.136;4.500;2023-01-15T10:26:43;99811.59;;;7.24;70.91
72857;BME280;62742;52.136;4.500;2023-01-15T10:31:53;99814.84;;;7.36;70.05
72857;BME280;62742;52.136;4.500;2023-01-15T10:35:09;99810.38;;;7.42;71.09
72857;BME280;62742;52.136;4.500;2023-01-15T10:45:56;99835.53;;;7.48;69.18
72857;BME280;62742;52.136;4.500;2023-01-15T10:48:39;99842.44;;;7.52;68.88
72857;BME280;62742;52.136;4.500;2023-01-15T10:51:13;99849.50;;;7.47;70.05
72857;BME280;62742;52.136;4.500;2023-01-15T10:54:05;99841.50;;;7.55;69.58
72857;BME280;62742;52.136;4.500;2023-01-15T10:56:45;99831.13;;;7.52;69.43
72857;BME280;62742;52.136;4.500;2023-01-15T10:59:20;99848.59;;;7.48;70.07
72857;BME280;62742;52.136;4.500;2023-01-15T11:01:56;99839.03;;;7.47;69.92
72857;BME280;62742;52.136;4.500;2023-01-15T11:04:25;99839.00;;;7.50;69.33
72857;BME280;62742;52.136;4.500;2023-01-15T11:06:57;99846.75;;;7.53;69.19
72857;BME280;62742;52.136;4.500;2023-01-15T11:09:25;99848.41;;;7.59;69.13
72857;BME280;62742;52.136;4.500;2023-01-15T11:12:19;99842.16;;;7.66;69.08
72857;BME280;62742;52.136;4.500;2023-01-15T11:14:48;99839.47;;;7.69;68.88
72857;BME280;62742;52.136;4.500;2023-01-15T11:17:37;99854.13;;;7.78;69.15
72857;BME280;62742;52.136;4.500;2023-01-15T11:20:30;99852.72;;;7.60;69.03
72857;BME280;62742;52.136;4.500;2023-01-15T11:23:07;99823.00;;;7.65;68.94
72857;BME280;62742;52.136;4.500;2023-01-15T11:25:48;99825.59;;;7.67;70.22
72857;BME280;62742;52.136;4.500;2023-01-15T11:28:17;99834.84;;;7.82;68.85
72857;BME280;62742;52.136;4.500;2023-01-15T11:30:51;99833.69;;;7.95;68.04
72857;BME280;62742;52.136;4.500;2023-01-15T11:33:23;99825.53;;;8.11;67.34
72857;BME280;62742;52.136;4.500;2023-01-15T11:35:54;99820.28;;;8.11;67.66
72857;BME280;62742;52.136;4.500;2023-01-15T11:38:23;99815.66;;;8.23;67.34
72857;BME280;62742;52.136;4.500;2023-01-15T11:40:58;99814.09;;;8.54;66.61
72857;BME280;62742;52.136;4.500;2023-01-15T11:43:29;99824.97;;;8.35;66.08
72857;BME280;62742;52.136;4.500;2023-01-15T11:46:22;99832.31;;;8.19;67.95
72857;BME280;62742;52.136;4.500;2023-01-15T11:49:17;99825.78;;;7.98;69.34
72857;BME280;62742;52.136;4.500;2023-01-15T11:52:04;99825.91;;;7.92;69.64
72857;BME280;62742;52.136;4.500;2023-01-15T11:54:36;99831.75;;;8.05;69.68
72857;BME280;62742;52.136;4.500;2023-01-15T11:57:06;99844.22;;;7.92;68.43
72857;BME280;62742;52.136;4.500;2023-01-15T11:59:33;99848.53;;;7.95;70.01
72857;BME280;62742;52.136;4.500;2023-01-15T12:02:01;99838.97;;;7.94;69.56
72857;BME280;62742;52.136;4.500;2023-01-15T12:04:37;99841.75;;;7.86;68.97
72857;BME280;62742;52.136;4.500;2023-01-15T12:07:11;99858.97;;;7.96;68.82
72857;BME280;62742;52.136;4.500;2023-01-15T12:15:30;99837.41;;;7.85;69.47
72857;BME280;62742;52.136;4.500;2023-01-15T12:23:58;99831.78;;;7.61;74.46
72857;BME280;62742;52.136;4.500;2023-01-15T12:30:18;99832.81;;;7.53;74.31
72857;BME280;62742;52.136;4.500;2023-01-15T12:32:34;99843.47;;;7.43;75.80
72857;BME280;62742;52.136;4.500;2023-01-15T12:35:12;99837.31;;;7.46;73.16
72857;BME280;62742;52.136;4.500;2023-01-15T12:38:27;99845.88;;;7.54;73.11
72857;BME280;62742;52.136;4.500;2023-01-15T12:40:45;99830.94;;;7.61;73.93
72857;BME280;62742;52.136;4.500;2023-01-15T12:43:23;99836.91;;;7.67;73.43
72857;BME280;62742;52.136;4.500;2023-01-15T12:46:11;99844.47;;;7.81;72.31
72857;BME280;62742;52.136;4.500;2023-01-15T12:49:18;99829.56;;;7.85;72.30
72857;BME280;62742;52.136;4.500;2023-01-15T12:52:04;99825.03;;;7.93;71.12
72857;BME280;62742;52.136;4.500;2023-01-15T12:54:40;99832.00;;;7.94;71.42
72857;BME280;62742;52.136;4.500;2023-01-15T13:02:36;99832.81;;;7.96;71.55
72857;BME280;62742;52.136;4.500;2023-01-15T13:10:24;99842.50;;;7.93;73.63
72857;BME280;62742;52.136;4.500;2023-01-15T13:12:54;99823.66;;;8.16;71.56
72857;BME280;62742;52.136;4.500;2023-01-15T13:15:32;99838.53;;;8.14;70.57
72857;BME280;62742;52.136;4.500;2023-01-15T13:18:14;99832.78;;;7.98;69.66
72857;BME280;62742;52.136;4.500;2023-01-15T13:20:47;99832.81;;;7.96;70.47
72857;BME280;62742;52.136;4.500;2023-01-15T13:34:02;99844.06;;;8.00;70.25
72857;BME280;62742;52.136;4.500;2023-01-15T13:36:39;99852.94;;;7.93;70.49
72857;BME280;62742;52.136;4.500;2023-01-15T13:39:19;99845.13;;;7.91;70.19
72857;BME280;62742;52.136;4.500;2023-01-15T13:41:52;99832.88;;;7.93;69.59
72857;BME280;62742;52.136;4.500;2023-01-15T13:44:38;99837.44;;;7.83;72.27
72857;BME280;62742;52.136;4.500;2023-01-15T13:47:13;99855.06;;;7.74;71.46
72857;BME280;62742;52.136;4.500;2023-01-15T13:49:54;99838.53;;;7.72;71.62
72857;BME280;62742;52.136;4.500;2023-01-15T13:52:31;99873.41;;;7.72;72.33
72857;BME280;62742;52.136;4.500;2023-01-15T13:55:06;99857.16;;;7.55;76.65
72857;BME280;62742;52.136;4.500;2023-01-15T13:57:42;99865.91;;;7.55;76.60
72857;BME280;62742;52.136;4.500;2023-01-15T14:00:26;99873.31;;;7.32;76.16
72857;BME280;62742;52.136;4.500;2023-01-15T14:02:56;99874.22;;;7.27;76.64
72857;BME280;62742;52.136;4.500;2023-01-15T14:05:29;99884.00;;;7.18;76.99
72857;BME280;62742;52.136;4.500;2023-01-15T14:07:58;99875.59;;;7.50;74.54
72857;BME280;62742;52.136;4.500;2023-01-15T14:15:29;99881.63;;;7.54;73.44
72857;BME280;62742;52.136;4.500;2023-01-15T14:18:12;99886.88;;;7.52;73.70
72857;BME280;62742;52.136;4.500;2023-01-15T14:34:41;99903.53;;;7.46;72.08
72857;BME280;62742;52.136;4.500;2023-01-15T14:39:41;99919.50;;;7.29;77.71
72857;BME280;62742;52.136;4.500;2023-01-15T14:47:46;99912.09;;;7.02;77.84
72857;BME280;62742;52.136;4.500;2023-01-15T14:50:35;99907.66;;;7.07;77.86
72857;BME280;62742;52.136;4.500;2023-01-15T15:00:57;99906.84;;;7.05;77.65
72857;BME280;62742;52.136;4.500;2023-01-15T15:03:34;99912.91;;;7.07;76.92
72857;BME280;62742;52.136;4.500;2023-01-15T15:06:05;99931.13;;;7.11;76.91
72857;BME280;62742;52.136;4.500;2023-01-15T15:08:37;99927.00;;;6.97;80.14
72857;BME280;62742;52.136;4.500;2023-01-15T15:11:11;99945.50;;;6.81;81.94
72857;BME280;62742;52.136;4.500;2023-01-15T15:14:03;99955.63;;;6.42;85.10
72857;BME280;62742;52.136;4.500;2023-01-15T15:16:34;99964.75;;;6.07;87.30
72857;BME280;62742;52.136;4.500;2023-01-15T15:22:04;99961.72;;;5.62;90.07
72857;BME280;62742;52.136;4.500;2023-01-15T15:24:35;99974.72;;;5.63;89.32
72857;BME280;62742;52.136;4.500;2023-01-15T15:27:17;99962.66;;;5.55;90.59
72857;BME280;62742;52.136;4.500;2023-01-15T15:29:45;99957.53;;;5.47;91.46